createdAt,value
2023-02-09T00:02:20.804Z,37.40
2023-02-09T00:07:22.241Z,36.80
2023-02-09T00:12:23.645Z,36.80
2023-02-09T00:17:25.078Z,36.80
2023-02-09T00:22:26.473Z,36.60
2023-02-09T00:27:27.880Z,36.60
2023-02-09T00:32:29.292Z,36.50
2023-02-09T00:37:30.706Z,36.40
2023-02-09T00:42:32.109Z,36.40
2023-02-09T00:52:58.545Z,36.30
2023-02-09T00:57:59.947Z,36.20
2023-02-09T01:03:01.361Z,36.20
2023-02-09T01:08:02.780Z,36.20
2023-02-09T01:13:04.228Z,36.20
2023-02-09T01:18:05.673Z,36.10
2023-02-09T01:23:07.085Z,36.10
2023-02-09T01:28:08.567Z,36.00
2023-02-09T01:33:10.014Z,36.00
2023-02-09T01:38:11.437Z,35.90
2023-02-09T01:43:12.867Z,35.80
2023-02-09T01:48:14.293Z,35.80
2023-02-09T01:53:15.707Z,35.70
2023-02-09T01:58:17.109Z,35.70
2023-02-09T02:03:18.522Z,35.70
2023-02-09T02:08:19.996Z,35.70
2023-02-09T02:13:21.416Z,35.70
2023-02-09T02:18:22.847Z,35.70
2023-02-09T02:23:24.254Z,35.60
2023-02-09T02:28:25.694Z,35.70
2023-02-09T02:33:27.114Z,35.60
2023-02-09T02:38:28.514Z,35.60
2023-02-09T02:43:29.914Z,35.50
2023-02-09T02:48:31.325Z,35.40
2023-02-09T02:53:32.737Z,35.40
2023-02-09T02:58:34.151Z,35.40
2023-02-09T03:03:35.573Z,35.30
2023-02-09T03:08:37.015Z,35.30
2023-02-09T03:13:38.409Z,35.40
2023-02-09T03:18:39.797Z,35.30
2023-02-09T03:23:41.211Z,35.30
2023-02-09T03:28:42.618Z,35.30
2023-02-09T03:33:44.026Z,35.30
2023-02-09T03:38:45.420Z,35.30
2023-02-09T03:43:46.840Z,35.20
2023-02-09T03:48:48.343Z,35.20
2023-02-09T03:53:49.757Z,35.20
2023-02-09T03:58:51.279Z,35.10
2023-02-09T04:03:52.723Z,35.10
2023-02-09T04:08:54.112Z,35.10
2023-02-09T04:13:55.537Z,35.10
2023-02-09T04:18:56.948Z,35.00
2023-02-09T04:23:58.376Z,35.00
2023-02-09T04:28:59.825Z,35.00
2023-02-09T04:34:01.273Z,35.00
2023-02-09T04:39:02.772Z,35.00
2023-02-09T04:44:04.186Z,35.00
2023-02-09T04:49:05.614Z,35.00
2023-02-09T04:54:07.043Z,35.00
2023-02-09T04:59:08.447Z,34.90
2023-02-09T05:04:09.846Z,34.90
2023-02-09T05:09:11.255Z,34.90
2023-02-09T05:14:12.712Z,34.80
2023-02-09T05:19:14.113Z,34.80
2023-02-09T05:24:15.522Z,34.70
2023-02-09T05:29:16.941Z,34.60
2023-02-09T05:34:18.360Z,34.80
2023-02-09T05:39:19.765Z,34.70
2023-02-09T05:44:21.167Z,34.60
2023-02-09T05:49:22.595Z,34.70
2023-02-09T05:54:24.019Z,34.60
2023-02-09T05:59:25.440Z,34.60
2023-02-09T06:04:26.865Z,34.50
2023-02-09T06:09:28.306Z,34.60
2023-02-09T06:14:29.744Z,34.50
2023-02-09T06:19:31.195Z,34.50
2023-02-09T06:24:32.629Z,34.50
2023-02-09T06:29:34.072Z,34.50
2023-02-09T06:34:35.498Z,34.50
2023-02-09T06:39:36.915Z,34.50
2023-02-09T06:44:38.345Z,34.40
2023-02-09T06:49:39.771Z,34.50
2023-02-09T06:54:41.413Z,34.40
2023-02-09T06:59:42.833Z,34.40
2023-02-09T07:04:44.252Z,34.40
2023-02-09T07:09:45.683Z,34.40
2023-02-09T07:14:47.086Z,34.40
2023-02-09T07:19:48.497Z,34.40
2023-02-09T07:24:49.908Z,34.30
2023-02-09T07:29:51.350Z,34.90
2023-02-09T07:34:52.790Z,34.20
2023-02-09T07:39:54.206Z,34.30
2023-02-09T07:44:55.649Z,34.20
2023-02-09T07:49:57.087Z,34.20
2023-02-09T07:54:58.513Z,34.20
2023-02-09T07:59:59.918Z,34.10
2023-02-09T08:05:01.335Z,34.10
2023-02-09T08:10:02.813Z,34.10
2023-02-09T08:15:04.233Z,34.10
2023-02-09T08:20:05.626Z,34.10
2023-02-09T08:25:07.110Z,34.10
2023-02-09T08:30:08.551Z,34.10
2023-02-09T08:35:10.039Z,34.10
2023-02-09T08:40:11.737Z,34.10
2023-02-09T08:45:13.183Z,34.10
2023-02-09T08:50:14.665Z,34.00
2023-02-09T08:55:16.198Z,34.10
2023-02-09T09:00:17.612Z,34.00
2023-02-09T09:05:19.114Z,34.00
2023-02-09T09:10:20.619Z,34.00
2023-02-09T09:15:22.058Z,34.00
2023-02-09T09:20:23.476Z,34.00
2023-02-09T09:25:24.927Z,34.00
2023-02-09T09:30:26.355Z,34.00
2023-02-09T09:35:27.785Z,34.00
2023-02-09T09:40:29.216Z,34.00
2023-02-09T09:45:30.639Z,34.00
2023-02-09T09:50:32.052Z,34.00
2023-02-09T09:55:34.288Z,34.00
2023-02-09T10:00:35.702Z,34.00
2023-02-09T10:05:37.292Z,33.90
2023-02-09T10:10:38.733Z,33.90
2023-02-09T10:15:40.397Z,34.00
2023-02-09T10:20:41.834Z,33.90
2023-02-09T10:25:43.299Z,33.90
2023-02-09T10:30:44.845Z,33.90
2023-02-09T10:35:46.534Z,33.90
2023-02-09T10:40:48.117Z,33.90
2023-02-09T10:45:49.533Z,33.90
2023-02-09T10:50:51.902Z,33.90
2023-02-09T10:55:53.379Z,33.90
2023-02-09T11:00:54.820Z,33.90
2023-02-09T11:05:56.254Z,33.90
2023-02-09T11:10:57.666Z,33.80
2023-02-09T11:15:59.096Z,33.80
2023-02-09T11:21:00.537Z,33.80
2023-02-09T11:26:01.967Z,33.80
2023-02-09T11:31:03.547Z,33.80
2023-02-09T11:36:05.039Z,33.80
2023-02-09T11:41:06.470Z,33.80
2023-02-09T11:46:09.158Z,33.80
2023-02-09T11:51:10.562Z,33.80
2023-02-09T11:56:11.970Z,33.90
2023-02-09T12:01:15.876Z,33.80
2023-02-09T12:06:17.702Z,33.80
2023-02-09T12:11:19.147Z,33.80
2023-02-09T12:16:20.730Z,33.80
2023-02-09T12:21:22.234Z,33.80
2023-02-09T12:26:23.647Z,33.70
2023-02-09T12:31:25.163Z,33.80
2023-02-09T12:36:26.637Z,33.70
2023-02-09T12:41:28.069Z,33.80
2023-02-09T12:46:29.572Z,33.70
2023-02-09T12:51:31.048Z,33.80
2023-02-09T12:56:32.494Z,33.70
2023-02-09T13:01:33.989Z,33.70
2023-02-09T13:06:35.450Z,33.80
2023-02-09T13:11:36.874Z,33.70
2023-02-09T13:16:38.358Z,33.80
2023-02-09T13:21:39.837Z,33.80
2023-02-09T13:26:41.253Z,33.80
2023-02-09T13:31:42.744Z,33.90
2023-02-09T13:36:44.296Z,33.90
2023-02-09T13:41:45.768Z,33.90
2023-02-09T13:46:47.198Z,33.90
2023-02-09T13:51:48.626Z,33.90
2023-02-09T13:56:50.036Z,33.90
2023-02-09T14:01:51.462Z,33.90
2023-02-09T14:06:52.881Z,33.80
2023-02-09T14:11:54.301Z,33.90
2023-02-09T14:16:55.760Z,34.00
2023-02-09T14:21:57.269Z,33.90
2023-02-09T14:26:58.689Z,33.90
2023-02-09T14:32:00.154Z,33.90
2023-02-09T14:37:03.479Z,34.00
2023-02-09T14:42:07.302Z,33.90
2023-02-09T14:47:08.781Z,33.90
2023-02-09T14:52:10.763Z,33.80
2023-02-09T14:57:12.254Z,33.80
2023-02-09T15:02:13.684Z,33.80
2023-02-09T15:07:15.167Z,33.80
2023-02-09T15:12:16.624Z,33.80
2023-02-09T15:17:18.139Z,33.90
2023-02-09T15:22:19.577Z,33.90
2023-02-09T15:27:20.998Z,33.90
2023-02-09T15:32:22.433Z,33.90
2023-02-09T15:37:23.853Z,33.90
2023-02-09T15:42:25.267Z,33.90
2023-02-09T15:47:29.692Z,33.90
2023-02-09T15:52:33.528Z,34.40
2023-02-09T15:57:44.637Z,33.80
2023-02-09T16:02:48.763Z,33.80
2023-02-09T16:07:50.265Z,33.80
2023-02-09T16:12:51.675Z,33.80
2023-02-09T16:17:53.078Z,33.70
2023-02-09T16:22:54.488Z,33.70
2023-02-09T16:27:55.945Z,33.70
2023-02-09T16:32:57.361Z,34.40
2023-02-09T16:37:58.792Z,34.40
2023-02-09T16:43:00.226Z,33.80
2023-02-09T16:48:01.630Z,33.80
2023-02-09T16:53:03.050Z,33.80
2023-02-09T16:58:04.488Z,33.80
2023-02-09T17:03:05.894Z,33.80
2023-02-09T17:08:07.340Z,33.80
2023-02-09T17:13:08.763Z,33.80
2023-02-09T17:18:10.171Z,33.70
2023-02-09T17:23:11.667Z,33.70
2023-02-09T17:28:13.121Z,33.70
2023-02-09T17:33:14.551Z,33.70
2023-02-09T17:38:15.971Z,33.60
2023-02-09T17:43:17.377Z,33.70
2023-02-09T17:48:18.809Z,33.70
2023-02-09T17:53:20.276Z,33.70
2023-02-09T17:58:21.675Z,33.70
2023-02-09T18:03:23.099Z,33.70
2023-02-09T18:08:24.508Z,33.70
2023-02-09T18:13:25.931Z,33.70
2023-02-09T18:18:27.350Z,33.60
2023-02-09T18:23:28.746Z,33.60
2023-02-09T18:28:30.289Z,33.60
2023-02-09T18:33:31.764Z,33.60
2023-02-09T18:38:33.234Z,33.60
2023-02-09T18:43:34.642Z,33.60
2023-02-09T18:48:36.057Z,33.60
2023-02-09T18:53:37.579Z,33.60
2023-02-09T18:58:39.019Z,33.60
2023-02-09T19:03:40.474Z,33.60
2023-02-09T19:08:41.914Z,33.60
2023-02-09T19:13:43.323Z,33.60
2023-02-09T19:18:44.755Z,33.60
2023-02-09T19:23:46.255Z,33.60
2023-02-09T19:28:47.742Z,33.50
2023-02-09T19:33:49.158Z,33.60
2023-02-09T19:38:50.584Z,33.50
2023-02-09T19:43:52.013Z,33.60
2023-02-09T19:48:53.421Z,33.50
2023-02-09T19:53:54.850Z,33.50
2023-02-09T19:58:56.291Z,33.40
2023-02-09T20:03:57.732Z,33.50
2023-02-09T20:08:59.196Z,33.50
2023-02-09T20:19:07.040Z,33.50
2023-02-09T20:24:08.638Z,33.50
2023-02-09T20:29:18.572Z,33.50
2023-02-09T20:34:20.038Z,33.50
2023-02-09T20:39:21.731Z,33.50
2023-02-09T20:44:23.214Z,34.20
2023-02-09T20:49:24.661Z,33.50
2023-02-09T20:54:26.076Z,33.50
2023-02-09T20:59:27.477Z,33.40
2023-02-09T21:04:28.880Z,33.40
2023-02-09T21:09:33.115Z,33.40
2023-02-09T21:14:41.543Z,33.40
2023-02-09T21:19:44.349Z,33.40
2023-02-09T21:24:45.797Z,33.50
2023-02-09T21:29:47.229Z,33.50
2023-02-09T21:34:48.687Z,33.50
2023-02-09T21:39:50.113Z,33.50
2023-02-09T21:44:51.545Z,33.50
2023-02-09T21:49:52.947Z,33.50
2023-02-09T21:54:54.372Z,33.40
2023-02-09T21:59:55.844Z,33.50
2023-02-09T22:04:57.258Z,33.50
2023-02-09T22:09:58.665Z,33.50
2023-02-09T22:15:00.090Z,33.50
2023-02-09T22:20:01.558Z,34.10
2023-02-09T22:25:03.027Z,33.50
2023-02-09T22:30:04.462Z,33.50
2023-02-09T22:35:05.876Z,33.50
2023-02-09T22:40:07.315Z,33.50
2023-02-09T22:45:08.717Z,33.50
2023-02-09T22:50:10.130Z,33.50
2023-02-09T22:55:11.537Z,33.50
2023-02-09T23:00:12.987Z,33.40
2023-02-09T23:05:14.437Z,33.50
2023-02-09T23:10:15.830Z,33.50
2023-02-09T23:15:17.254Z,33.60
2023-02-09T23:20:18.784Z,33.50
2023-02-09T23:25:20.187Z,33.50
2023-02-09T23:30:21.595Z,33.50
2023-02-09T23:35:24.200Z,33.50
2023-02-09T23:40:25.730Z,33.50
2023-02-09T23:45:27.152Z,33.50
2023-02-09T23:50:28.642Z,33.50
2023-02-09T23:55:30.048Z,33.50
